createdAt,value
2018-03-03T00:00:25.674Z,177.10
2018-03-03T00:02:53.300Z,192.57
2018-03-03T00:05:21.796Z,173.97
2018-03-03T00:07:50.335Z,190.37
2018-03-03T00:10:17.945Z,180.53
2018-03-03T00:12:46.421Z,184.07
2018-03-03T00:15:15.590Z,182.47
2018-03-03T00:17:43.220Z,190.70
2018-03-03T00:20:10.856Z,169.10
2018-03-03T00:22:41.377Z,201.80
2018-03-03T00:25:09.051Z,184.93
2018-03-03T00:27:36.761Z,198.23
2018-03-03T00:30:04.628Z,199.77
2018-03-03T00:32:32.242Z,181.67
2018-03-03T00:34:59.909Z,182.97
2018-03-03T00:37:27.519Z,210.50
2018-03-03T00:39:55.268Z,178.90
2018-03-03T00:42:23.847Z,183.73
2018-03-03T00:44:51.474Z,164.60
2018-03-03T00:47:19.224Z,165.90
2018-03-03T00:49:46.819Z,192.27
2018-03-03T00:52:14.452Z,189.23
2018-03-03T00:54:42.098Z,212.33
2018-03-03T00:57:10.508Z,193.63
2018-03-03T00:59:40.681Z,183.23
2018-03-03T01:02:09.112Z,182.33
2018-03-03T01:04:36.742Z,167.57
2018-03-03T01:07:04.352Z,170.90
2018-03-03T01:09:31.977Z,183.43
2018-03-03T01:12:00.498Z,189.20
2018-03-03T01:14:28.121Z,184.20
2018-03-03T01:16:56.514Z,173.33
2018-03-03T01:19:24.148Z,186.57
2018-03-03T01:21:51.841Z,172.03
2018-03-03T01:24:19.518Z,181.93
2018-03-03T01:26:47.886Z,177.10
2018-03-03T01:29:15.716Z,177.80
2018-03-03T01:31:43.440Z,174.30
2018-03-03T01:34:11.831Z,202.63
2018-03-03T01:36:40.214Z,191.83
2018-03-03T01:39:08.724Z,195.10
2018-03-03T01:41:36.463Z,193.30
2018-03-03T01:44:04.848Z,199.20
2018-03-03T01:46:33.363Z,194.87
2018-03-03T01:49:00.976Z,195.83
2018-03-03T01:51:40.674Z,193.07
2018-03-03T01:54:08.278Z,200.00
2018-03-03T01:56:35.902Z,190.53
2018-03-03T01:59:03.526Z,195.30
2018-03-03T02:01:39.986Z,209.37
2018-03-03T02:04:07.727Z,192.37
2018-03-03T02:06:35.355Z,206.27
2018-03-03T02:09:03.712Z,211.40
2018-03-03T02:11:32.091Z,209.20
2018-03-03T02:14:01.234Z,199.63
2018-03-03T02:16:28.849Z,199.63
2018-03-03T02:18:56.483Z,196.47
2018-03-03T02:21:24.086Z,196.20
2018-03-03T02:23:51.743Z,197.50
2018-03-03T02:26:19.368Z,205.67
2018-03-03T02:28:46.963Z,228.57
2018-03-03T02:31:14.592Z,192.23
2018-03-03T02:33:42.197Z,200.87
2018-03-03T02:36:09.893Z,186.60
2018-03-03T02:38:38.272Z,194.13
2018-03-03T02:41:06.677Z,200.07
2018-03-03T02:43:39.530Z,203.27
2018-03-03T02:46:07.937Z,196.10
2018-03-03T02:48:36.319Z,202.27
2018-03-03T02:51:04.699Z,197.73
2018-03-03T02:53:33.114Z,168.53
2018-03-03T02:56:00.726Z,203.57
2018-03-03T02:58:29.118Z,192.27
2018-03-03T03:00:57.510Z,191.13
2018-03-03T03:03:25.190Z,176.50
2018-03-03T03:05:53.554Z,190.17
2018-03-03T03:08:21.179Z,181.70
2018-03-03T03:10:48.798Z,181.17
2018-03-03T03:13:17.168Z,178.03
2018-03-03T03:15:44.813Z,197.00
2018-03-03T03:18:12.547Z,201.37
2018-03-03T03:20:40.180Z,194.70
2018-03-03T03:23:08.572Z,207.00
2018-03-03T03:25:36.981Z,201.10
2018-03-03T03:28:04.576Z,197.80
2018-03-03T03:30:32.217Z,196.20
2018-03-03T03:32:59.861Z,211.73
2018-03-03T03:35:28.230Z,217.33
2018-03-03T03:37:56.622Z,204.30
2018-03-03T03:40:24.992Z,208.47
2018-03-03T03:42:52.703Z,215.23
2018-03-03T03:45:20.365Z,205.87
2018-03-03T03:47:47.996Z,199.60
2018-03-03T03:50:16.377Z,210.97
2018-03-03T03:52:43.978Z,197.63
2018-03-03T03:55:11.591Z,193.13
2018-03-03T03:57:40.712Z,194.67
2018-03-03T04:00:09.148Z,187.87
2018-03-03T04:02:36.753Z,189.93
2018-03-03T04:05:04.400Z,198.27
2018-03-03T04:07:32.091Z,210.17
2018-03-03T04:10:00.478Z,205.13
2018-03-03T04:12:28.892Z,204.50
2018-03-03T04:14:56.499Z,198.60
2018-03-03T04:17:24.143Z,214.07
2018-03-03T04:19:51.753Z,202.10
2018-03-03T04:22:20.173Z,195.70
2018-03-03T04:24:47.774Z,195.83
2018-03-03T04:27:15.736Z,207.90
2018-03-03T04:29:43.349Z,204.77
2018-03-03T04:32:11.767Z,240.33
2018-03-03T04:34:39.397Z,217.83
2018-03-03T04:37:07.775Z,219.13
2018-03-03T04:39:35.392Z,208.37
2018-03-03T04:42:03.012Z,212.03
2018-03-03T04:44:30.647Z,202.20
2018-03-03T04:46:58.309Z,207.60
2018-03-03T04:49:25.909Z,181.90
2018-03-03T04:51:54.490Z,194.83
2018-03-03T04:54:22.116Z,196.40
2018-03-03T04:56:49.856Z,183.40
2018-03-03T04:59:35.278Z,174.57
2018-03-03T05:02:06.607Z,168.50
2018-03-03T05:04:36.602Z,194.20
2018-03-03T05:07:09.908Z,182.40
2018-03-03T05:09:39.046Z,224.17
2018-03-03T05:12:06.670Z,209.70
2018-03-03T05:14:54.956Z,203.77
2018-03-03T05:17:28.890Z,189.83
2018-03-03T05:20:03.004Z,180.73
2018-03-03T05:22:42.016Z,205.03
2018-03-03T05:25:15.081Z,201.30
2018-03-03T05:27:48.321Z,190.50
2018-03-03T05:30:32.304Z,200.93
2018-03-03T05:33:05.444Z,177.67
2018-03-03T05:35:36.288Z,202.40
2018-03-03T05:38:10.309Z,205.40
2018-03-03T05:40:47.842Z,204.33
2018-03-03T05:43:22.227Z,194.10
2018-03-03T05:46:04.724Z,188.10
2018-03-03T05:48:34.678Z,195.93
2018-03-03T05:51:12.394Z,190.10
2018-03-03T05:53:45.471Z,186.80
2018-03-03T05:56:18.722Z,163.93
2018-03-03T06:02:04.216Z,200.30
2018-03-03T06:04:47.415Z,194.77
2018-03-03T06:07:21.573Z,201.93
2018-03-03T06:09:52.001Z,209.53
2018-03-03T06:12:19.623Z,215.07
2018-03-03T06:14:48.005Z,215.60
2018-03-03T06:17:16.420Z,221.37
2018-03-03T06:19:44.059Z,197.43
2018-03-03T06:22:12.484Z,198.57
2018-03-03T06:24:40.095Z,207.93
2018-03-03T06:27:07.742Z,187.03
2018-03-03T06:29:35.367Z,188.77
2018-03-03T06:32:02.992Z,173.60
2018-03-03T06:34:31.386Z,183.00
2018-03-03T06:36:59.787Z,184.50
2018-03-03T06:39:27.409Z,183.63
2018-03-03T06:41:55.027Z,179.43
2018-03-03T06:44:22.829Z,200.10
2018-03-03T06:46:50.430Z,165.63
2018-03-03T06:49:18.802Z,173.67
2018-03-03T06:51:46.453Z,187.63
2018-03-03T06:54:14.054Z,166.57
2018-03-03T06:56:42.448Z,165.37
2018-03-03T06:59:10.913Z,170.93
2018-03-03T07:01:38.557Z,150.80
2018-03-03T07:04:06.218Z,163.77
2018-03-03T07:06:33.830Z,167.00
2018-03-03T07:09:01.458Z,169.20
2018-03-03T07:11:29.072Z,149.87
2018-03-03T07:13:56.937Z,146.53
2018-03-03T07:16:25.302Z,149.87
2018-03-03T07:18:53.675Z,138.30
2018-03-03T07:21:21.310Z,145.00
2018-03-03T07:23:51.160Z,142.47
2018-03-03T07:26:18.900Z,127.43
2018-03-03T07:28:46.526Z,135.27
2018-03-03T07:31:14.172Z,146.80
2018-03-03T07:33:42.650Z,128.70
2018-03-03T07:36:11.315Z,141.87
2018-03-03T07:38:39.042Z,132.03
2018-03-03T07:41:06.656Z,146.47
2018-03-03T07:43:34.293Z,122.17
2018-03-03T07:46:01.930Z,116.80
2018-03-03T07:48:29.639Z,113.10
2018-03-03T07:50:57.221Z,122.67
2018-03-03T07:53:24.856Z,118.50
2018-03-03T07:55:52.473Z,104.97
2018-03-03T07:58:32.233Z,109.57
2018-03-03T08:01:00.681Z,115.43
2018-03-03T08:03:29.165Z,114.70
2018-03-03T08:05:57.005Z,108.93
2018-03-03T08:08:24.661Z,110.50
2018-03-03T08:10:52.319Z,118.57
2018-03-03T08:13:20.875Z,111.47
2018-03-03T08:15:49.295Z,100.10
2018-03-03T08:18:18.121Z,105.73
2018-03-03T08:20:45.724Z,104.07
2018-03-03T08:23:14.138Z,106.33
2018-03-03T08:25:41.829Z,102.50
2018-03-03T08:28:09.555Z,106.57
2018-03-03T08:30:38.079Z,94.00
2018-03-03T08:33:05.693Z,104.33
2018-03-03T08:35:34.081Z,90.37
2018-03-03T08:38:02.442Z,88.77
2018-03-03T08:40:30.073Z,97.57
2018-03-03T08:42:57.685Z,90.57
2018-03-03T08:45:25.302Z,83.50
2018-03-03T08:47:52.927Z,81.47
2018-03-03T08:50:21.399Z,71.07
2018-03-03T08:52:48.990Z,70.03
2018-03-03T08:55:16.600Z,61.83
2018-03-03T08:57:44.248Z,59.40
2018-03-03T09:00:11.852Z,64.00
2018-03-03T09:02:39.816Z,67.20
2018-03-03T09:05:07.476Z,72.40
2018-03-03T09:07:35.130Z,67.03
2018-03-03T09:10:02.820Z,66.37
2018-03-03T09:12:30.414Z,61.10
2018-03-03T09:14:58.873Z,68.60
2018-03-03T09:17:27.277Z,58.17
2018-03-03T09:19:54.862Z,59.20
2018-03-03T09:22:23.256Z,56.20
2018-03-03T09:24:50.892Z,56.60
2018-03-03T09:27:19.296Z,65.90
2018-03-03T09:29:47.667Z,56.63
2018-03-03T09:32:16.076Z,67.03
2018-03-03T09:34:43.678Z,64.30
2018-03-03T09:37:11.292Z,76.30
2018-03-03T09:39:39.663Z,68.73
2018-03-03T09:42:08.030Z,60.30
2018-03-03T09:44:36.456Z,50.57
2018-03-03T09:47:04.063Z,64.00
2018-03-03T09:49:31.709Z,54.93
2018-03-03T09:51:59.311Z,47.83
2018-03-03T09:54:26.942Z,39.70
2018-03-03T09:56:54.545Z,50.83
2018-03-03T09:59:22.185Z,53.97
2018-03-03T10:01:52.333Z,51.47
2018-03-03T10:04:17.449Z,79.47
2018-03-03T10:06:45.108Z,63.60
2018-03-03T10:09:12.719Z,46.00
2018-03-03T10:11:40.459Z,41.27
2018-03-03T10:14:08.836Z,55.23
2018-03-03T10:16:36.485Z,36.40
2018-03-03T10:19:04.085Z,36.90
2018-03-03T10:21:32.473Z,39.13
2018-03-03T10:24:00.114Z,30.63
2018-03-03T10:26:28.479Z,34.20
2018-03-03T10:28:56.102Z,32.13
2018-03-03T10:31:23.825Z,34.20
2018-03-03T10:33:52.995Z,27.90
2018-03-03T10:36:20.740Z,34.10
2018-03-03T10:38:48.365Z,29.30
2018-03-03T10:41:16.801Z,31.87
2018-03-03T10:43:44.415Z,27.70
2018-03-03T10:46:12.813Z,35.87
2018-03-03T10:48:41.180Z,32.73
2018-03-03T10:51:09.003Z,38.37
2018-03-03T10:53:36.594Z,28.83
2018-03-03T10:56:04.190Z,39.37
2018-03-03T10:58:32.737Z,37.73
2018-03-03T11:01:00.304Z,33.87
2018-03-03T11:03:28.162Z,36.07
2018-03-03T11:05:55.770Z,41.80
2018-03-03T11:08:23.410Z,38.47
2018-03-03T11:10:51.006Z,36.83
2018-03-03T11:13:19.386Z,41.53
2018-03-03T11:15:47.020Z,39.57
2018-03-03T11:18:14.624Z,41.20
2018-03-03T11:20:43.023Z,39.10
2018-03-03T11:23:11.464Z,42.23
2018-03-03T11:25:39.128Z,46.53
2018-03-03T11:28:06.751Z,40.43
2018-03-03T11:30:34.368Z,43.07
2018-03-03T11:33:01.995Z,44.97
2018-03-03T11:35:29.607Z,53.50
2018-03-03T11:37:57.232Z,54.37
2018-03-03T11:40:24.824Z,54.90
2018-03-03T11:42:52.424Z,56.27
2018-03-03T11:45:20.811Z,67.00
2018-03-03T11:47:49.211Z,75.10
2018-03-03T11:50:16.895Z,63.43
2018-03-03T11:52:44.499Z,62.73
2018-03-03T11:55:12.118Z,75.07
2018-03-03T11:57:39.721Z,75.60
2018-03-03T12:00:07.329Z,61.57
2018-03-03T12:02:34.968Z,76.03
2018-03-03T12:05:02.578Z,79.07
2018-03-03T12:07:30.249Z,86.67
2018-03-03T12:09:57.855Z,82.30
2018-03-03T12:12:25.489Z,81.73
2018-03-03T12:14:53.147Z,88.80
2018-03-03T12:17:20.822Z,75.17
2018-03-03T12:19:48.452Z,84.37
2018-03-03T12:22:16.863Z,82.03
2018-03-03T12:24:44.517Z,92.87
2018-03-03T12:27:12.896Z,87.70
2018-03-03T12:29:41.436Z,84.80
2018-03-03T12:32:09.066Z,86.93
2018-03-03T12:34:36.693Z,82.90
2018-03-03T12:37:05.092Z,93.27
2018-03-03T12:39:33.495Z,90.40
2018-03-03T12:42:01.103Z,91.17
2018-03-03T12:44:28.705Z,81.73
2018-03-03T12:46:57.100Z,84.83
2018-03-03T12:49:24.700Z,108.03
2018-03-03T12:51:52.375Z,95.30
2018-03-03T12:54:20.003Z,80.43
2018-03-03T12:56:47.626Z,83.33
2018-03-03T12:59:15.344Z,138.97
2018-03-03T13:01:42.937Z,79.93
2018-03-03T13:04:10.794Z,89.80
2018-03-03T13:06:38.396Z,87.43
2018-03-03T13:09:08.550Z,90.40
2018-03-03T13:11:36.930Z,82.00
2018-03-03T13:14:05.310Z,85.17
2018-03-03T13:16:33.708Z,84.97
2018-03-03T13:19:01.489Z,89.43
2018-03-03T13:21:29.123Z,78.47
2018-03-03T13:23:57.498Z,79.60
2018-03-03T13:26:25.908Z,96.93
2018-03-03T13:28:53.576Z,81.57
2018-03-03T13:31:21.251Z,88.60
2018-03-03T13:33:48.885Z,79.30
2018-03-03T13:36:16.512Z,86.83
2018-03-03T13:38:44.155Z,82.33
2018-03-03T13:41:11.802Z,76.03
2018-03-03T13:43:40.191Z,84.90
2018-03-03T13:46:07.819Z,85.73
2018-03-03T13:48:35.458Z,83.33
2018-03-03T13:51:03.068Z,92.77
2018-03-03T13:53:31.487Z,87.60
2018-03-03T13:55:59.104Z,78.27
2018-03-03T13:58:26.745Z,84.33
2018-03-03T14:00:54.384Z,86.87
2018-03-03T14:03:21.980Z,93.73
2018-03-03T14:05:49.620Z,91.57
2018-03-03T14:08:17.223Z,94.07
2018-03-03T14:10:44.847Z,95.37
2018-03-03T14:13:12.525Z,92.10
2018-03-03T14:15:40.258Z,90.90
2018-03-03T14:18:08.630Z,95.10
2018-03-03T14:20:36.391Z,91.07
2018-03-03T14:23:04.057Z,97.80
2018-03-03T14:25:33.166Z,96.00
2018-03-03T14:28:00.814Z,92.80
2018-03-03T14:30:28.463Z,98.13
2018-03-03T14:33:03.594Z,95.77
2018-03-03T14:35:31.280Z,110.73
2018-03-03T14:37:58.979Z,109.97
2018-03-03T14:40:27.400Z,103.93
2018-03-03T14:42:55.018Z,114.03
2018-03-03T14:45:23.470Z,120.10
2018-03-03T14:47:51.075Z,110.30
2018-03-03T14:50:19.491Z,111.73
2018-03-03T14:52:47.122Z,111.00
2018-03-03T14:55:14.791Z,117.60
2018-03-03T14:57:43.359Z,108.50
2018-03-03T15:00:11.756Z,112.73
2018-03-03T15:02:39.421Z,113.57
2018-03-03T15:05:07.844Z,105.97
2018-03-03T15:07:35.514Z,117.57
2018-03-03T15:10:03.149Z,116.63
2018-03-03T15:12:31.560Z,120.60
2018-03-03T15:14:59.177Z,112.33
2018-03-03T15:17:28.357Z,111.73
2018-03-03T15:19:56.089Z,107.87
2018-03-03T15:22:23.722Z,115.43
2018-03-03T15:24:51.397Z,108.40
2018-03-03T15:27:19.963Z,117.97
2018-03-03T15:29:47.568Z,110.40
2018-03-03T15:32:15.213Z,117.80
2018-03-03T15:34:43.607Z,109.03
2018-03-03T15:37:12.152Z,103.80
2018-03-03T15:39:39.764Z,103.53
2018-03-03T15:42:08.269Z,113.77
2018-03-03T15:44:35.896Z,118.67
2018-03-03T15:47:04.290Z,119.77
2018-03-03T15:49:32.695Z,123.60
2018-03-03T15:52:01.123Z,113.83
2018-03-03T15:54:28.836Z,122.90
2018-03-03T15:56:57.263Z,108.87
2018-03-03T15:59:24.936Z,161.40
2018-03-03T16:01:52.589Z,181.03
2018-03-03T16:04:20.283Z,172.40
2018-03-03T16:06:47.903Z,119.60
2018-03-03T16:09:15.514Z,122.53
2018-03-03T16:11:43.286Z,126.77
2018-03-03T16:14:10.979Z,123.73
2018-03-03T16:16:41.204Z,135.33
2018-03-03T16:19:09.728Z,128.73
2018-03-03T16:21:37.492Z,115.13
2018-03-03T16:24:05.101Z,122.17
2018-03-03T16:26:33.749Z,130.77
2018-03-03T16:29:01.362Z,120.37
2018-03-03T16:31:29.814Z,114.23
2018-03-03T16:33:57.453Z,234.77
2018-03-03T16:36:25.100Z,182.17
2018-03-03T16:38:53.538Z,252.23
2018-03-03T16:41:21.149Z,179.30
2018-03-03T16:43:49.583Z,178.23
2018-03-03T16:46:17.257Z,197.17
2018-03-03T16:48:44.883Z,118.23
2018-03-03T16:51:13.270Z,103.07
2018-03-03T16:53:40.923Z,127.67
2018-03-03T16:56:09.441Z,115.67
2018-03-03T16:58:37.065Z,115.40
2018-03-03T17:01:04.709Z,111.00
2018-03-03T17:03:32.372Z,125.63
2018-03-03T17:05:59.975Z,126.07
2018-03-03T17:08:28.563Z,116.83
2018-03-03T17:10:56.922Z,133.60
2018-03-03T17:13:26.087Z,129.17
2018-03-03T17:15:53.713Z,117.17
2018-03-03T17:18:22.180Z,126.80
2018-03-03T17:20:50.734Z,125.80
2018-03-03T17:23:18.361Z,131.70
2018-03-03T17:25:46.824Z,118.73
2018-03-03T17:28:15.241Z,125.30
2018-03-03T17:30:42.883Z,140.93
2018-03-03T17:33:11.294Z,119.23
2018-03-03T17:35:38.930Z,111.90
2018-03-03T17:38:07.338Z,128.07
2018-03-03T17:40:34.986Z,128.93
2018-03-03T17:43:03.500Z,127.67
2018-03-03T17:45:31.138Z,127.87
2018-03-03T17:47:59.576Z,115.27
2018-03-03T17:50:27.184Z,127.40
2018-03-03T17:52:55.012Z,130.13
2018-03-03T17:55:22.656Z,117.97
2018-03-03T17:57:50.266Z,125.40
2018-03-03T18:00:17.921Z,126.47
2018-03-03T18:02:45.618Z,129.77
2018-03-03T18:05:13.344Z,111.13
2018-03-03T18:07:40.994Z,112.80
2018-03-03T18:10:08.645Z,117.83
2018-03-03T18:12:36.325Z,106.70
2018-03-03T18:15:03.962Z,116.20
2018-03-03T18:17:32.377Z,117.77
2018-03-03T18:20:00.021Z,110.50
2018-03-03T18:22:27.667Z,111.00
2018-03-03T18:24:55.281Z,119.33
2018-03-03T18:27:23.284Z,123.47
2018-03-03T18:29:51.736Z,123.77
2018-03-03T18:32:19.448Z,114.90
2018-03-03T18:34:48.039Z,114.13
2018-03-03T18:37:15.866Z,100.73
2018-03-03T18:39:43.509Z,119.03
2018-03-03T18:42:12.135Z,122.03
2018-03-03T18:44:39.770Z,118.13
2018-03-03T18:47:07.627Z,111.20
2018-03-03T18:49:36.065Z,105.50
2018-03-03T18:52:03.797Z,93.43
2018-03-03T18:54:31.431Z,91.33
2018-03-03T18:56:59.953Z,98.73
2018-03-03T18:59:28.148Z,109.30
2018-03-03T19:01:55.839Z,99.63
2018-03-03T19:04:23.485Z,108.00
2018-03-03T19:06:51.144Z,100.97
2018-03-03T19:09:18.837Z,93.07
2018-03-03T19:11:46.495Z,101.63
2018-03-03T19:14:14.203Z,111.73
2018-03-03T19:16:42.641Z,107.90
2018-03-03T19:19:10.366Z,96.43
2018-03-03T19:21:38.058Z,117.00
2018-03-03T19:24:05.723Z,111.43
2018-03-03T19:26:33.431Z,99.30
2018-03-03T19:29:01.931Z,122.73
2018-03-03T19:31:30.399Z,110.13
2018-03-03T19:33:58.073Z,111.90
2018-03-03T19:36:25.847Z,115.43
2018-03-03T19:38:54.967Z,119.30
2018-03-03T19:41:23.487Z,110.13
2018-03-03T19:43:51.324Z,116.10
2018-03-03T19:46:19.744Z,109.07
2018-03-03T19:48:47.450Z,123.07
2018-03-03T19:51:15.132Z,112.87
2018-03-03T19:53:43.580Z,131.50
2018-03-03T19:56:11.229Z,123.40
2018-03-03T19:58:38.994Z,130.27
2018-03-03T20:01:06.677Z,122.60
2018-03-03T20:03:34.461Z,126.20
2018-03-03T20:06:03.002Z,120.60
2018-03-03T20:08:31.459Z,123.70
2018-03-03T20:10:59.157Z,123.63
2018-03-03T20:13:26.880Z,111.67
2018-03-03T20:15:54.649Z,108.40
2018-03-03T20:18:24.061Z,111.13
2018-03-03T20:20:53.200Z,108.03
2018-03-03T20:23:20.865Z,106.03
2018-03-03T20:25:49.424Z,91.87
2018-03-03T20:28:17.829Z,107.80
2018-03-03T20:30:46.224Z,94.10
2018-03-03T20:33:13.883Z,102.53
2018-03-03T20:35:42.347Z,100.10
2018-03-03T20:38:10.786Z,101.77
2018-03-03T20:40:38.447Z,98.03
2018-03-03T20:43:06.096Z,99.23
2018-03-03T20:45:33.843Z,93.97
2018-03-03T20:48:02.271Z,97.60
2018-03-03T20:50:29.930Z,88.97
2018-03-03T20:52:57.622Z,105.13
2018-03-03T20:55:25.287Z,99.10
2018-03-03T20:57:52.970Z,99.60
2018-03-03T21:00:20.629Z,99.90
2018-03-03T21:02:48.333Z,99.63
2018-03-03T21:05:16.806Z,95.37
2018-03-03T21:07:44.431Z,106.00
2018-03-03T21:10:12.136Z,94.40
2018-03-03T21:12:41.271Z,93.73
2018-03-03T21:15:09.850Z,91.63
2018-03-03T21:17:37.601Z,103.83
2018-03-03T21:20:06.798Z,112.23
2018-03-03T21:22:35.383Z,91.43
2018-03-03T21:25:03.915Z,102.10
2018-03-03T21:27:32.415Z,89.00
2018-03-03T21:30:00.168Z,95.60
2018-03-03T21:32:27.811Z,112.03
2018-03-03T21:34:56.238Z,115.43
2018-03-03T21:37:23.887Z,103.97
2018-03-03T21:39:51.520Z,111.97
2018-03-03T21:42:19.935Z,116.57
2018-03-03T21:44:47.939Z,104.67
2018-03-03T21:47:15.569Z,102.23
2018-03-03T21:49:43.165Z,104.53
2018-03-03T21:52:10.911Z,95.87
2018-03-03T21:54:38.538Z,98.07
2018-03-03T21:57:06.962Z,107.50
2018-03-03T21:59:34.575Z,112.13
2018-03-03T22:02:02.231Z,97.50
2018-03-03T22:04:29.845Z,105.73
2018-03-03T22:06:58.237Z,106.13
2018-03-03T22:09:26.057Z,97.50
2018-03-03T22:11:53.690Z,118.03
2018-03-03T22:14:21.348Z,103.80
2018-03-03T22:16:48.969Z,107.60
2018-03-03T22:19:16.641Z,115.60
2018-03-03T22:21:45.045Z,116.70
2018-03-03T22:24:13.729Z,110.80
2018-03-03T22:26:41.371Z,105.50
2018-03-03T22:29:09.001Z,119.90
2018-03-03T22:31:36.658Z,95.07
2018-03-03T22:34:04.305Z,110.67
2018-03-03T22:36:32.664Z,107.07
2018-03-03T22:39:00.287Z,97.30
2018-03-03T22:41:27.914Z,96.70
2018-03-03T22:43:56.314Z,101.47
2018-03-03T22:46:25.042Z,96.50
2018-03-03T22:48:53.545Z,118.37
2018-03-03T22:51:22.709Z,103.13
2018-03-03T22:53:50.367Z,121.07
2018-03-03T22:56:17.968Z,111.13
2018-03-03T22:58:45.682Z,108.80
2018-03-03T23:01:14.043Z,112.17
2018-03-03T23:03:41.773Z,117.33
2018-03-03T23:06:09.385Z,116.20
2018-03-03T23:08:37.857Z,107.60
2018-03-03T23:11:05.482Z,101.90
2018-03-03T23:13:33.094Z,109.27
2018-03-03T23:16:01.502Z,119.40
2018-03-03T23:18:29.132Z,111.97
2018-03-03T23:20:58.246Z,122.33
2018-03-03T23:23:26.640Z,113.43
2018-03-03T23:25:55.105Z,113.03
2018-03-03T23:28:23.525Z,118.23
2018-03-03T23:30:51.126Z,125.63
2018-03-03T23:33:18.857Z,106.80
2018-03-03T23:35:46.481Z,115.27
2018-03-03T23:38:14.092Z,113.10
2018-03-03T23:40:41.696Z,109.90
2018-03-03T23:43:09.330Z,115.27
2018-03-03T23:45:36.952Z,108.73
2018-03-03T23:48:04.663Z,110.90
2018-03-03T23:50:32.285Z,115.37
2018-03-03T23:52:59.892Z,110.77
2018-03-03T23:55:28.289Z,115.27
2018-03-03T23:57:55.904Z,115.97
